sensor_id;sensor_type;location;lat;lon;timestamp;temperature;humidity
1075;DHT22;526;51.392;12.448;2023-03-12T00:01:46;-1.10;97.30
1075;DHT22;526;51.392;12.448;2023-03-12T00:04:18;-1.10;97.30
1075;DHT22;526;51.392;12.448;2023-03-12T00:06:56;-1.20;97.30
1075;DHT22;526;51.392;12.448;2023-03-12T00:09:48;-1.20;97.30
1075;DHT22;526;51.392;12.448;2023-03-12T00:12:17;-1.20;97.30
1075;DHT22;526;51.392;12.448;2023-03-12T00:14:46;-1.20;97.30
1075;DHT22;526;51.392;12.448;2023-03-12T00:17:18;-1.20;97.30
1075;DHT22;526;51.392;12.448;2023-03-12T00:19:51;-1.20;97.30
1075;DHT22;526;51.392;12.448;2023-03-12T00:22:16;-1.20;97.30
1075;DHT22;526;51.392;12.448;2023-03-12T00:24:58;-1.20;97.30
1075;DHT22;526;51.392;12.448;2023-03-12T00:27:26;-1.20;97.30
1075;DHT22;526;51.392;12.448;2023-03-12T00:29:52;-1.20;97.30
1075;DHT22;526;51.392;12.448;2023-03-12T00:32:18;-1.20;97.30
1075;DHT22;526;51.392;12.448;2023-03-12T00:34:48;-1.10;97.30
1075;DHT22;526;51.392;12.448;2023-03-12T00:37:14;-1.20;97.30
1075;DHT22;526;51.392;12.448;2023-03-12T00:39:42;-1.20;97.30
1075;DHT22;526;51.392;12.448;2023-03-12T00:42:07;-1.20;97.30
1075;DHT22;526;51.392;12.448;2023-03-12T00:44:33;-1.20;97.30
1075;DHT22;526;51.392;12.448;2023-03-12T00:46:58;-1.20;97.30
1075;DHT22;526;51.392;12.448;2023-03-12T00:49:24;-1.20;97.30
1075;DHT22;526;51.392;12.448;2023-03-12T00:51:49;-1.20;97.30
1075;DHT22;526;51.392;12.448;2023-03-12T00:54:15;-1.20;97.30
1075;DHT22;526;51.392;12.448;2023-03-12T00:56:40;-1.20;97.30
1075;DHT22;526;51.392;12.448;2023-03-12T00:59:06;-1.20;97.30
1075;DHT22;526;51.392;12.448;2023-03-12T01:01:31;-1.20;97.30
1075;DHT22;526;51.392;12.448;2023-03-12T01:03:57;-1.20;97.30
1075;DHT22;526;51.392;12.448;2023-03-12T01:06:24;-1.20;97.30
1075;DHT22;526;51.392;12.448;2023-03-12T01:08:50;-1.20;97.30
1075;DHT22;526;51.392;12.448;2023-03-12T01:11:17;-1.20;97.30
1075;DHT22;526;51.392;12.448;2023-03-12T01:13:43;-1.20;97.30
1075;DHT22;526;51.392;12.448;2023-03-12T01:16:09;-1.20;97.30
1075;DHT22;526;51.392;12.448;2023-03-12T01:18:38;-1.20;97.30
1075;DHT22;526;51.392;12.448;2023-03-12T01:21:04;-1.20;97.30
1075;DHT22;526;51.392;12.448;2023-03-12T01:23:30;-1.20;97.30
1075;DHT22;526;51.392;12.448;2023-03-12T01:25:55;-1.30;97.30
1075;DHT22;526;51.392;12.448;2023-03-12T01:28:22;-1.20;97.30
1075;DHT22;526;51.392;12.448;2023-03-12T01:30:48;-1.20;97.30
1075;DHT22;526;51.392;12.448;2023-03-12T01:33:14;-1.20;97.30
1075;DHT22;526;51.392;12.448;2023-03-12T01:35:40;-1.20;97.30
1075;DHT22;526;51.392;12.448;2023-03-12T01:38:07;-1.20;97.30
1075;DHT22;526;51.392;12.448;2023-03-12T01:40:34;-1.20;97.30
1075;DHT22;526;51.392;12.448;2023-03-12T01:48:38;-1.20;97.30
1075;DHT22;526;51.392;12.448;2023-03-12T01:51:05;-1.20;97.30
1075;DHT22;526;51.392;12.448;2023-03-12T01:53:32;-1.20;97.30
1075;DHT22;526;51.392;12.448;2023-03-12T01:55:59;-1.20;97.30
1075;DHT22;526;51.392;12.448;2023-03-12T01:58:26;-1.20;97.30
1075;DHT22;526;51.392;12.448;2023-03-12T02:00:58;-1.30;97.30
1075;DHT22;526;51.392;12.448;2023-03-12T02:03:38;-1.30;97.30
1075;DHT22;526;51.392;12.448;2023-03-12T02:06:19;-1.30;97.30
1075;DHT22;526;51.392;12.448;2023-03-12T02:09:43;-1.30;97.30
1075;DHT22;526;51.392;12.448;2023-03-12T02:12:29;-1.30;97.30
1075;DHT22;526;51.392;12.448;2023-03-12T02:14:58;-1.30;97.30
1075;DHT22;526;51.392;12.448;2023-03-12T02:17:30;-1.30;97.30
1075;DHT22;526;51.392;12.448;2023-03-12T02:23:12;-1.30;97.30
1075;DHT22;526;51.392;12.448;2023-03-12T02:25:49;-1.30;97.30
1075;DHT22;526;51.392;12.448;2023-03-12T02:28:18;-1.40;97.30
1075;DHT22;526;51.392;12.448;2023-03-12T02:30:46;-1.30;97.30
1075;DHT22;526;51.392;12.448;2023-03-12T02:33:12;-1.40;97.30
1075;DHT22;526;51.392;12.448;2023-03-12T02:35:40;-1.40;97.30
1075;DHT22;526;51.392;12.448;2023-03-12T02:40:51;-1.50;97.30
1075;DHT22;526;51.392;12.448;2023-03-12T02:43:18;-1.50;97.30
1075;DHT22;526;51.392;12.448;2023-03-12T02:45:44;-1.50;97.30
1075;DHT22;526;51.392;12.448;2023-03-12T02:48:10;-1.50;97.30
1075;DHT22;526;51.392;12.448;2023-03-12T02:50:35;-1.50;97.30
1075;DHT22;526;51.392;12.448;2023-03-12T02:53:01;-1.60;97.30
1075;DHT22;526;51.392;12.448;2023-03-12T02:55:26;-1.60;97.30
1075;DHT22;526;51.392;12.448;2023-03-12T02:57:52;-1.60;97.30
1075;DHT22;526;51.392;12.448;2023-03-12T03:00:18;-1.60;97.30
1075;DHT22;526;51.392;12.448;2023-03-12T03:02:43;-1.60;97.30
1075;DHT22;526;51.392;12.448;2023-03-12T03:05:10;-1.60;97.30
1075;DHT22;526;51.392;12.448;2023-03-12T03:07:36;-1.60;97.30
1075;DHT22;526;51.392;12.448;2023-03-12T03:10:04;-1.60;97.30
1075;DHT22;526;51.392;12.448;2023-03-12T03:12:30;-1.60;97.30
1075;DHT22;526;51.392;12.448;2023-03-12T03:14:56;-1.60;97.30
1075;DHT22;526;51.392;12.448;2023-03-12T03:17:22;-1.60;97.30
1075;DHT22;526;51.392;12.448;2023-03-12T03:19:49;-1.60;97.30
1075;DHT22;526;51.392;12.448;2023-03-12T03:22:15;-1.60;97.30
1075;DHT22;526;51.392;12.448;2023-03-12T03:24:40;-1.60;97.30
1075;DHT22;526;51.392;12.448;2023-03-12T03:27:06;-1.60;97.30
1075;DHT22;526;51.392;12.448;2023-03-12T03:29:32;-1.60;97.30
1075;DHT22;526;51.392;12.448;2023-03-12T03:31:57;-1.60;97.30
1075;DHT22;526;51.392;12.448;2023-03-12T03:34:23;-1.60;97.30
1075;DHT22;526;51.392;12.448;2023-03-12T03:36:48;-1.60;97.30
1075;DHT22;526;51.392;12.448;2023-03-12T03:39:14;-1.60;97.30
1075;DHT22;526;51.392;12.448;2023-03-12T03:41:39;-1.60;97.30
1075;DHT22;526;51.392;12.448;2023-03-12T03:44:05;-1.60;97.30
1075;DHT22;526;51.392;12.448;2023-03-12T03:46:32;-1.60;97.30
1075;DHT22;526;51.392;12.448;2023-03-12T03:49:00;-1.60;97.30
1075;DHT22;526;51.392;12.448;2023-03-12T03:51:25;-1.60;97.30
1075;DHT22;526;51.392;12.448;2023-03-12T03:53:51;-1.60;97.30
1075;DHT22;526;51.392;12.448;2023-03-12T03:56:17;-1.60;97.30
1075;DHT22;526;51.392;12.448;2023-03-12T03:58:42;-1.60;97.30
1075;DHT22;526;51.392;12.448;2023-03-12T04:01:08;-1.60;97.30
1075;DHT22;526;51.392;12.448;2023-03-12T04:03:59;-1.60;97.30
1075;DHT22;526;51.392;12.448;2023-03-12T04:06:28;-1.60;97.30
1075;DHT22;526;51.392;12.448;2023-03-12T04:08:57;-1.60;97.30
1075;DHT22;526;51.392;12.448;2023-03-12T04:11:29;-1.60;97.30
1075;DHT22;526;51.392;12.448;2023-03-12T04:13:57;-1.60;97.30
1075;DHT22;526;51.392;12.448;2023-03-12T04:16:30;-1.60;97.30
1075;DHT22;526;51.392;12.448;2023-03-12T04:18:59;-1.60;97.30
1075;DHT22;526;51.392;12.448;2023-03-12T04:21:27;-1.60;97.30
1075;DHT22;526;51.392;12.448;2023-03-12T04:23:53;-1.60;97.30
1075;DHT22;526;51.392;12.448;2023-03-12T04:26:18;-1.60;97.30
1075;DHT22;526;51.392;12.448;2023-03-12T04:28:44;-1.60;97.30
1075;DHT22;526;51.392;12.448;2023-03-12T04:31:10;-1.60;97.30
1075;DHT22;526;51.392;12.448;2023-03-12T04:33:39;-1.60;97.30
1075;DHT22;526;51.392;12.448;2023-03-12T04:36:09;-1.60;97.30
1075;DHT22;526;51.392;12.448;2023-03-12T04:38:38;-1.60;97.30
1075;DHT22;526;51.392;12.448;2023-03-12T04:41:09;-1.60;97.30
1075;DHT22;526;51.392;12.448;2023-03-12T04:43:38;-1.60;97.30
1075;DHT22;526;51.392;12.448;2023-03-12T04:46:10;-1.50;97.30
1075;DHT22;526;51.392;12.448;2023-03-12T04:48:38;-1.50;97.30
1075;DHT22;526;51.392;12.448;2023-03-12T04:51:09;-1.50;97.30
1075;DHT22;526;51.392;12.448;2023-03-12T04:53:37;-1.50;97.30
1075;DHT22;526;51.392;12.448;2023-03-12T04:56:08;-1.60;97.30
1075;DHT22;526;51.392;12.448;2023-03-12T04:58:33;-1.60;97.30
1075;DHT22;526;51.392;12.448;2023-03-12T05:01:02;-1.60;97.30
1075;DHT22;526;51.392;12.448;2023-03-12T05:03:28;-1.70;97.30
1075;DHT22;526;51.392;12.448;2023-03-12T05:05:53;-1.70;97.30
1075;DHT22;526;51.392;12.448;2023-03-12T05:08:19;-1.70;97.30
1075;DHT22;526;51.392;12.448;2023-03-12T05:10:44;-1.70;97.30
1075;DHT22;526;51.392;12.448;2023-03-12T05:13:20;-1.80;97.30
1075;DHT22;526;51.392;12.448;2023-03-12T05:15:47;-1.80;97.30
1075;DHT22;526;51.392;12.448;2023-03-12T05:18:15;-1.90;97.30
1075;DHT22;526;51.392;12.448;2023-03-12T05:20:40;-1.90;97.30
1075;DHT22;526;51.392;12.448;2023-03-12T05:23:06;-1.90;97.30
1075;DHT22;526;51.392;12.448;2023-03-12T05:25:31;-2.00;97.30
1075;DHT22;526;51.392;12.448;2023-03-12T05:27:57;-2.00;97.30
1075;DHT22;526;51.392;12.448;2023-03-12T05:30:22;-2.10;97.30
1075;DHT22;526;51.392;12.448;2023-03-12T05:32:48;-2.10;97.30
1075;DHT22;526;51.392;12.448;2023-03-12T05:35:13;-2.10;97.30
1075;DHT22;526;51.392;12.448;2023-03-12T05:37:39;-2.10;97.30
1075;DHT22;526;51.392;12.448;2023-03-12T05:40:10;-2.10;97.30
1075;DHT22;526;51.392;12.448;2023-03-12T05:42:36;-2.10;97.30
1075;DHT22;526;51.392;12.448;2023-03-12T05:45:03;-2.10;97.30
1075;DHT22;526;51.392;12.448;2023-03-12T05:47:29;-2.00;97.30
1075;DHT22;526;51.392;12.448;2023-03-12T05:49:55;-2.00;97.30
1075;DHT22;526;51.392;12.448;2023-03-12T05:52:20;-2.00;97.30
1075;DHT22;526;51.392;12.448;2023-03-12T05:54:46;-2.00;97.30
1075;DHT22;526;51.392;12.448;2023-03-12T05:57:11;-2.10;97.30
1075;DHT22;526;51.392;12.448;2023-03-12T05:59:37;-2.10;97.30
1075;DHT22;526;51.392;12.448;2023-03-12T06:02:02;-2.20;97.30
1075;DHT22;526;51.392;12.448;2023-03-12T06:04:28;-2.30;97.30
1075;DHT22;526;51.392;12.448;2023-03-12T06:06:54;-2.30;97.30
1075;DHT22;526;51.392;12.448;2023-03-12T06:09:19;-2.30;97.30
1075;DHT22;526;51.392;12.448;2023-03-12T06:11:45;-2.30;97.30
1075;DHT22;526;51.392;12.448;2023-03-12T06:14:10;-2.30;97.30
1075;DHT22;526;51.392;12.448;2023-03-12T06:16:37;-2.30;97.30
1075;DHT22;526;51.392;12.448;2023-03-12T06:19:03;-2.20;97.30
1075;DHT22;526;51.392;12.448;2023-03-12T06:21:31;-2.10;97.30
1075;DHT22;526;51.392;12.448;2023-03-12T06:23:58;-2.10;97.30
1075;DHT22;526;51.392;12.448;2023-03-12T06:26:23;-2.00;97.30
1075;DHT22;526;51.392;12.448;2023-03-12T06:28:50;-2.00;97.30
1075;DHT22;526;51.392;12.448;2023-03-12T06:31:17;-1.90;97.30
1075;DHT22;526;51.392;12.448;2023-03-12T06:33:42;-1.90;97.30
1075;DHT22;526;51.392;12.448;2023-03-12T06:36:09;-1.70;97.30
1075;DHT22;526;51.392;12.448;2023-03-12T06:38:35;-1.70;97.30
1075;DHT22;526;51.392;12.448;2023-03-12T06:41:10;-1.60;97.30
1075;DHT22;526;51.392;12.448;2023-03-12T06:43:40;-1.50;97.30
1075;DHT22;526;51.392;12.448;2023-03-12T06:46:12;-1.40;97.30
1075;DHT22;526;51.392;12.448;2023-03-12T06:48:38;-1.30;97.30
1075;DHT22;526;51.392;12.448;2023-03-12T06:51:10;-1.20;97.30
1075;DHT22;526;51.392;12.448;2023-03-12T06:53:39;-1.00;97.30
1075;DHT22;526;51.392;12.448;2023-03-12T06:56:08;-0.90;97.30
1075;DHT22;526;51.392;12.448;2023-03-12T06:58:34;-0.80;97.30
1075;DHT22;526;51.392;12.448;2023-03-12T07:00:59;-0.70;97.30
1075;DHT22;526;51.392;12.448;2023-03-12T07:03:28;-0.60;97.30
1075;DHT22;526;51.392;12.448;2023-03-12T07:05:55;-0.60;97.30
1075;DHT22;526;51.392;12.448;2023-03-12T07:08:20;-0.50;97.30
1075;DHT22;526;51.392;12.448;2023-03-12T07:10:47;-0.40;97.30
1075;DHT22;526;51.392;12.448;2023-03-12T07:13:13;-0.30;97.30
1075;DHT22;526;51.392;12.448;2023-03-12T07:15:38;-0.20;97.30
1075;DHT22;526;51.392;12.448;2023-03-12T07:18:06;-0.10;97.30
1075;DHT22;526;51.392;12.448;2023-03-12T07:20:32;0.00;97.30
1075;DHT22;526;51.392;12.448;2023-03-12T07:23:00;0.10;97.30
1075;DHT22;526;51.392;12.448;2023-03-12T07:25:25;0.10;97.30
1075;DHT22;526;51.392;12.448;2023-03-12T07:27:51;0.20;97.30
1075;DHT22;526;51.392;12.448;2023-03-12T07:30:16;0.30;97.30
1075;DHT22;526;51.392;12.448;2023-03-12T07:32:42;0.40;97.30
1075;DHT22;526;51.392;12.448;2023-03-12T07:35:08;0.50;97.30
1075;DHT22;526;51.392;12.448;2023-03-12T07:37:33;0.60;97.30
1075;DHT22;526;51.392;12.448;2023-03-12T07:39:59;0.70;97.30
1075;DHT22;526;51.392;12.448;2023-03-12T07:42:24;0.80;97.30
1075;DHT22;526;51.392;12.448;2023-03-12T07:44:50;0.90;97.30
1075;DHT22;526;51.392;12.448;2023-03-12T07:47:15;1.00;97.30
1075;DHT22;526;51.392;12.448;2023-03-12T07:49:41;1.10;97.30
1075;DHT22;526;51.392;12.448;2023-03-12T07:52:07;1.20;97.30
1075;DHT22;526;51.392;12.448;2023-03-12T07:54:36;1.30;97.30
1075;DHT22;526;51.392;12.448;2023-03-12T07:57:02;1.40;97.30
1075;DHT22;526;51.392;12.448;2023-03-12T07:59:28;1.50;97.30
1075;DHT22;526;51.392;12.448;2023-03-12T08:01:59;1.60;97.30
1075;DHT22;526;51.392;12.448;2023-03-12T08:04:28;1.60;97.30
1075;DHT22;526;51.392;12.448;2023-03-12T08:06:54;1.60;97.30
1075;DHT22;526;51.392;12.448;2023-03-12T08:09:19;1.60;97.30
1075;DHT22;526;51.392;12.448;2023-03-12T08:11:50;1.70;97.30
1075;DHT22;526;51.392;12.448;2023-03-12T08:14:19;1.70;97.30
1075;DHT22;526;51.392;12.448;2023-03-12T08:17:10;1.70;97.30
1075;DHT22;526;51.392;12.448;2023-03-12T08:19:39;1.80;97.30
1075;DHT22;526;51.392;12.448;2023-03-12T08:22:08;1.90;97.30
1075;DHT22;526;51.392;12.448;2023-03-12T08:24:40;1.90;97.30
1075;DHT22;526;51.392;12.448;2023-03-12T08:27:18;2.00;97.30
1075;DHT22;526;51.392;12.448;2023-03-12T08:29:48;2.20;97.30
1075;DHT22;526;51.392;12.448;2023-03-12T08:32:19;2.30;97.30
1075;DHT22;526;51.392;12.448;2023-03-12T08:34:45;2.40;97.30
1075;DHT22;526;51.392;12.448;2023-03-12T08:37:12;2.50;97.30
1075;DHT22;526;51.392;12.448;2023-03-12T08:39:40;2.60;97.30
1075;DHT22;526;51.392;12.448;2023-03-12T08:42:06;2.60;97.30
1075;DHT22;526;51.392;12.448;2023-03-12T08:44:32;2.70;97.30
1075;DHT22;526;51.392;12.448;2023-03-12T08:46:57;2.80;97.30
1075;DHT22;526;51.392;12.448;2023-03-12T08:49:23;2.90;97.30
1075;DHT22;526;51.392;12.448;2023-03-12T08:51:49;3.10;97.30
1075;DHT22;526;51.392;12.448;2023-03-12T08:54:16;3.20;96.80
1075;DHT22;526;51.392;12.448;2023-03-12T08:56:42;3.20;96.50
1075;DHT22;526;51.392;12.448;2023-03-12T08:59:10;3.20;95.70
1075;DHT22;526;51.392;12.448;2023-03-12T09:01:36;3.20;95.80
1075;DHT22;526;51.392;12.448;2023-03-12T09:04:03;3.30;96.20
1075;DHT22;526;51.392;12.448;2023-03-12T09:06:28;3.40;96.80
1075;DHT22;526;51.392;12.448;2023-03-12T09:08:54;3.50;97.10
1075;DHT22;526;51.392;12.448;2023-03-12T09:11:20;3.60;96.10
1075;DHT22;526;51.392;12.448;2023-03-12T09:13:45;3.60;96.30
1075;DHT22;526;51.392;12.448;2023-03-12T09:16:11;3.60;95.80
1075;DHT22;526;51.392;12.448;2023-03-12T09:18:36;3.70;95.50
1075;DHT22;526;51.392;12.448;2023-03-12T09:21:02;3.60;94.80
1075;DHT22;526;51.392;12.448;2023-03-12T09:23:30;3.70;95.00
1075;DHT22;526;51.392;12.448;2023-03-12T09:25:56;3.70;95.00
1075;DHT22;526;51.392;12.448;2023-03-12T09:28:21;3.60;94.70
1075;DHT22;526;51.392;12.448;2023-03-12T09:30:47;3.70;95.10
1075;DHT22;526;51.392;12.448;2023-03-12T09:33:13;3.70;95.30
1075;DHT22;526;51.392;12.448;2023-03-12T09:35:42;3.70;94.90
1075;DHT22;526;51.392;12.448;2023-03-12T09:38:12;3.80;95.30
1075;DHT22;526;51.392;12.448;2023-03-12T09:40:38;3.90;94.90
1075;DHT22;526;51.392;12.448;2023-03-12T09:43:10;4.00;95.40
1075;DHT22;526;51.392;12.448;2023-03-12T09:45:41;4.20;95.50
1075;DHT22;526;51.392;12.448;2023-03-12T09:48:17;4.40;95.30
1075;DHT22;526;51.392;12.448;2023-03-12T09:50:47;4.50;94.40
1075;DHT22;526;51.392;12.448;2023-03-12T09:53:24;4.50;93.50
1075;DHT22;526;51.392;12.448;2023-03-12T09:55:53;4.50;93.60
1075;DHT22;526;51.392;12.448;2023-03-12T09:58:34;4.60;94.30
1075;DHT22;526;51.392;12.448;2023-03-12T10:01:20;4.80;93.30
1075;DHT22;526;51.392;12.448;2023-03-12T10:04:18;4.80;93.00
1075;DHT22;526;51.392;12.448;2023-03-12T10:06:55;4.90;92.50
1075;DHT22;526;51.392;12.448;2023-03-12T10:09:44;5.00;92.10
1075;DHT22;526;51.392;12.448;2023-03-12T10:12:29;5.00;91.80
1075;DHT22;526;51.392;12.448;2023-03-12T10:20:45;5.20;91.80
1075;DHT22;526;51.392;12.448;2023-03-12T10:23:34;5.20;91.70
1075;DHT22;526;51.392;12.448;2023-03-12T10:26:11;5.20;90.90
1075;DHT22;526;51.392;12.448;2023-03-12T10:28:49;5.10;89.70
1075;DHT22;526;51.392;12.448;2023-03-12T10:31:22;5.20;90.30
1075;DHT22;526;51.392;12.448;2023-03-12T10:33:58;5.20;88.40
1075;DHT22;526;51.392;12.448;2023-03-12T10:36:35;5.30;88.20
1075;DHT22;526;51.392;12.448;2023-03-12T10:39:02;5.40;88.40
1075;DHT22;526;51.392;12.448;2023-03-12T10:41:30;5.40;86.90
1075;DHT22;526;51.392;12.448;2023-03-12T10:44:00;5.50;88.30
1075;DHT22;526;51.392;12.448;2023-03-12T10:49:23;5.70;86.70
1075;DHT22;526;51.392;12.448;2023-03-12T10:52:33;5.70;86.60
1075;DHT22;526;51.392;12.448;2023-03-12T10:54:52;5.70;86.60
1075;DHT22;526;51.392;12.448;2023-03-12T10:57:18;5.70;86.90
1075;DHT22;526;51.392;12.448;2023-03-12T10:59:46;5.80;87.00
1075;DHT22;526;51.392;12.448;2023-03-12T11:02:34;5.90;86.40
1075;DHT22;526;51.392;12.448;2023-03-12T11:05:19;5.90;85.40
1075;DHT22;526;51.392;12.448;2023-03-12T11:07:45;5.90;84.90
1075;DHT22;526;51.392;12.448;2023-03-12T11:10:12;5.90;85.80
1075;DHT22;526;51.392;12.448;2023-03-12T11:12:38;6.00;86.50
1075;DHT22;526;51.392;12.448;2023-03-12T11:15:19;6.10;85.30
1075;DHT22;526;51.392;12.448;2023-03-12T11:17:45;6.20;86.40
1075;DHT22;526;51.392;12.448;2023-03-12T11:22:46;6.50;84.50
1075;DHT22;526;51.392;12.448;2023-03-12T11:25:26;6.40;84.20
1075;DHT22;526;51.392;12.448;2023-03-12T11:27:54;6.50;84.80
1075;DHT22;526;51.392;12.448;2023-03-12T11:30:31;6.60;84.30
1075;DHT22;526;51.392;12.448;2023-03-12T11:33:00;6.60;84.40
1075;DHT22;526;51.392;12.448;2023-03-12T11:38:18;6.80;84.90
1075;DHT22;526;51.392;12.448;2023-03-12T11:47:17;6.40;84.90
1075;DHT22;526;51.392;12.448;2023-03-12T11:50:24;6.30;85.00
1075;DHT22;526;51.392;12.448;2023-03-12T11:58:44;6.20;85.40
1075;DHT22;526;51.392;12.448;2023-03-12T12:04:18;6.20;85.70
1075;DHT22;526;51.392;12.448;2023-03-12T12:07:07;6.30;86.30
1075;DHT22;526;51.392;12.448;2023-03-12T12:18:19;6.40;85.00
1075;DHT22;526;51.392;12.448;2023-03-12T12:21:05;6.30;85.30
1075;DHT22;526;51.392;12.448;2023-03-12T12:29:09;6.50;85.80
1075;DHT22;526;51.392;12.448;2023-03-12T12:31:55;6.60;86.40
1075;DHT22;526;51.392;12.448;2023-03-12T12:40:04;6.60;86.10
1075;DHT22;526;51.392;12.448;2023-03-12T12:42:35;6.50;84.70
1075;DHT22;526;51.392;12.448;2023-03-12T12:45:03;6.50;84.30
1075;DHT22;526;51.392;12.448;2023-03-12T12:47:44;6.50;85.00
1075;DHT22;526;51.392;12.448;2023-03-12T12:50:18;6.50;84.60
1075;DHT22;526;51.392;12.448;2023-03-12T12:52:51;6.40;84.90
1075;DHT22;526;51.392;12.448;2023-03-12T12:55:36;6.40;85.40
1075;DHT22;526;51.392;12.448;2023-03-12T12:58:11;6.30;85.40
1075;DHT22;526;51.392;12.448;2023-03-12T13:00:54;6.30;85.20
1075;DHT22;526;51.392;12.448;2023-03-12T13:03:23;6.30;86.00
1075;DHT22;526;51.392;12.448;2023-03-12T13:05:57;6.30;86.60
1075;DHT22;526;51.392;12.448;2023-03-12T13:13:41;6.40;87.00
1075;DHT22;526;51.392;12.448;2023-03-12T13:24:30;6.50;86.60
1075;DHT22;526;51.392;12.448;2023-03-12T13:27:11;6.40;85.60
1075;DHT22;526;51.392;12.448;2023-03-12T13:29:40;6.30;85.70
1075;DHT22;526;51.392;12.448;2023-03-12T13:37:47;6.30;87.10
1075;DHT22;526;51.392;12.448;2023-03-12T13:46:02;5.90;91.80
1075;DHT22;526;51.392;12.448;2023-03-12T13:48:29;5.80;93.10
1075;DHT22;526;51.392;12.448;2023-03-12T13:51:19;5.80;94.30
1075;DHT22;526;51.392;12.448;2023-03-12T13:53:54;5.70;95.30
1075;DHT22;526;51.392;12.448;2023-03-12T13:56:30;5.60;96.60
1075;DHT22;526;51.392;12.448;2023-03-12T13:59:02;5.50;97.30
1075;DHT22;526;51.392;12.448;2023-03-12T14:01:37;5.40;97.30
1075;DHT22;526;51.392;12.448;2023-03-12T14:04:17;5.30;97.30
1075;DHT22;526;51.392;12.448;2023-03-12T14:16:01;5.60;97.30
1075;DHT22;526;51.392;12.448;2023-03-12T14:18:29;5.70;97.30
1075;DHT22;526;51.392;12.448;2023-03-12T14:20:59;5.70;97.30
1075;DHT22;526;51.392;12.448;2023-03-12T14:23:29;5.60;97.10
1075;DHT22;526;51.392;12.448;2023-03-12T14:26:00;5.60;97.00
1075;DHT22;526;51.392;12.448;2023-03-12T14:28:27;5.60;97.30
1075;DHT22;526;51.392;12.448;2023-03-12T14:36:17;5.50;97.30
1075;DHT22;526;51.392;12.448;2023-03-12T14:38:46;5.50;97.30
1075;DHT22;526;51.392;12.448;2023-03-12T14:41:23;5.40;97.30
1075;DHT22;526;51.392;12.448;2023-03-12T14:43:51;5.40;97.30
1075;DHT22;526;51.392;12.448;2023-03-12T14:46:22;5.30;97.30
1075;DHT22;526;51.392;12.448;2023-03-12T14:48:50;5.20;97.30
1075;DHT22;526;51.392;12.448;2023-03-12T14:51:22;5.20;97.30
1075;DHT22;526;51.392;12.448;2023-03-12T14:53:48;5.20;97.30
1075;DHT22;526;51.392;12.448;2023-03-12T14:56:22;5.20;97.30
1075;DHT22;526;51.392;12.448;2023-03-12T14:58:49;5.20;97.30
1075;DHT22;526;51.392;12.448;2023-03-12T15:01:32;5.30;97.30
1075;DHT22;526;51.392;12.448;2023-03-12T15:04:01;5.40;97.30
1075;DHT22;526;51.392;12.448;2023-03-12T15:06:33;5.40;97.30
1075;DHT22;526;51.392;12.448;2023-03-12T15:09:02;5.40;97.30
1075;DHT22;526;51.392;12.448;2023-03-12T15:11:29;5.40;97.30
1075;DHT22;526;51.392;12.448;2023-03-12T15:14:04;5.40;97.30
1075;DHT22;526;51.392;12.448;2023-03-12T15:16:31;5.40;97.30
1075;DHT22;526;51.392;12.448;2023-03-12T15:18:57;5.40;97.30
1075;DHT22;526;51.392;12.448;2023-03-12T15:21:23;5.40;97.30
1075;DHT22;526;51.392;12.448;2023-03-12T15:23:49;5.40;97.30
1075;DHT22;526;51.392;12.448;2023-03-12T15:29:01;5.40;97.30
1075;DHT22;526;51.392;12.448;2023-03-12T15:31:43;5.40;97.30
1075;DHT22;526;51.392;12.448;2023-03-12T15:34:11;5.50;97.30
1075;DHT22;526;51.392;12.448;2023-03-12T15:36:47;5.50;97.30
1075;DHT22;526;51.392;12.448;2023-03-12T15:39:32;5.50;97.30
1075;DHT22;526;51.392;12.448;2023-03-12T15:42:08;5.50;97.30
1075;DHT22;526;51.392;12.448;2023-03-12T15:44:48;5.60;97.30
1075;DHT22;526;51.392;12.448;2023-03-12T15:47:20;5.60;97.30
1075;DHT22;526;51.392;12.448;2023-03-12T15:50:18;5.60;97.30
1075;DHT22;526;51.392;12.448;2023-03-12T15:53:05;5.60;97.30
1075;DHT22;526;51.392;12.448;2023-03-12T15:55:33;5.60;97.30
1075;DHT22;526;51.392;12.448;2023-03-12T15:57:59;5.60;97.30
1075;DHT22;526;51.392;12.448;2023-03-12T16:05:32;5.60;97.30
1075;DHT22;526;51.392;12.448;2023-03-12T16:08:21;5.60;97.30
1075;DHT22;526;51.392;12.448;2023-03-12T16:10:51;5.60;97.30
1075;DHT22;526;51.392;12.448;2023-03-12T16:13:19;5.60;97.30
1075;DHT22;526;51.392;12.448;2023-03-12T16:15:46;5.50;97.30
1075;DHT22;526;51.392;12.448;2023-03-12T16:18:13;5.50;97.30
1075;DHT22;526;51.392;12.448;2023-03-12T16:20:39;5.60;97.30
1075;DHT22;526;51.392;12.448;2023-03-12T16:23:05;5.60;97.30
1075;DHT22;526;51.392;12.448;2023-03-12T16:25:31;5.70;97.30
1075;DHT22;526;51.392;12.448;2023-03-12T16:28:02;5.70;97.30
1075;DHT22;526;51.392;12.448;2023-03-12T16:30:31;5.80;97.30
1075;DHT22;526;51.392;12.448;2023-03-12T16:32:58;5.80;97.30
1075;DHT22;526;51.392;12.448;2023-03-12T16:35:24;5.90;97.30
1075;DHT22;526;51.392;12.448;2023-03-12T16:37:52;5.90;97.30
1075;DHT22;526;51.392;12.448;2023-03-12T16:40:18;5.90;97.30
1075;DHT22;526;51.392;12.448;2023-03-12T16:42:45;5.90;97.30
1075;DHT22;526;51.392;12.448;2023-03-12T16:45:13;5.90;97.30
1075;DHT22;526;51.392;12.448;2023-03-12T16:47:40;5.90;97.30
1075;DHT22;526;51.392;12.448;2023-03-12T16:50:18;5.90;97.30
1075;DHT22;526;51.392;12.448;2023-03-12T16:52:44;5.90;97.30
1075;DHT22;526;51.392;12.448;2023-03-12T16:55:16;5.90;97.30
1075;DHT22;526;51.392;12.448;2023-03-12T16:57:45;5.90;97.30
1075;DHT22;526;51.392;12.448;2023-03-12T17:00:14;5.90;97.30
1075;DHT22;526;51.392;12.448;2023-03-12T17:02:40;5.90;97.30
1075;DHT22;526;51.392;12.448;2023-03-12T17:05:06;5.90;97.30
1075;DHT22;526;51.392;12.448;2023-03-12T17:07:31;6.00;97.30
1075;DHT22;526;51.392;12.448;2023-03-12T17:09:57;6.00;97.30
1075;DHT22;526;51.392;12.448;2023-03-12T17:12:34;6.00;97.30
1075;DHT22;526;51.392;12.448;2023-03-12T17:15:02;6.00;97.30
1075;DHT22;526;51.392;12.448;2023-03-12T17:17:29;6.00;97.30
1075;DHT22;526;51.392;12.448;2023-03-12T17:19:55;6.00;97.30
1075;DHT22;526;51.392;12.448;2023-03-12T17:24:52;5.90;97.30
1075;DHT22;526;51.392;12.448;2023-03-12T17:27:18;5.90;97.30
1075;DHT22;526;51.392;12.448;2023-03-12T17:29:43;5.90;97.30
1075;DHT22;526;51.392;12.448;2023-03-12T17:32:09;5.90;97.30
1075;DHT22;526;51.392;12.448;2023-03-12T17:34:35;5.90;97.30
1075;DHT22;526;51.392;12.448;2023-03-12T17:37:01;5.90;97.30
1075;DHT22;526;51.392;12.448;2023-03-12T17:39:27;5.90;97.30
1075;DHT22;526;51.392;12.448;2023-03-12T17:41:52;5.90;97.30
1075;DHT22;526;51.392;12.448;2023-03-12T17:44:18;6.00;97.30
1075;DHT22;526;51.392;12.448;2023-03-12T17:46:43;6.00;97.30
1075;DHT22;526;51.392;12.448;2023-03-12T17:49:09;6.00;97.30
1075;DHT22;526;51.392;12.448;2023-03-12T17:51:34;6.00;97.30
1075;DHT22;526;51.392;12.448;2023-03-12T17:54:00;6.00;97.30
1075;DHT22;526;51.392;12.448;2023-03-12T17:56:25;6.10;97.30
1075;DHT22;526;51.392;12.448;2023-03-12T17:58:51;6.10;97.30
1075;DHT22;526;51.392;12.448;2023-03-12T18:01:17;6.10;97.30
1075;DHT22;526;51.392;12.448;2023-03-12T18:03:42;6.10;97.30
1075;DHT22;526;51.392;12.448;2023-03-12T18:06:09;6.10;97.30
1075;DHT22;526;51.392;12.448;2023-03-12T18:08:35;6.10;97.30
1075;DHT22;526;51.392;12.448;2023-03-12T18:11:01;6.10;97.30
1075;DHT22;526;51.392;12.448;2023-03-12T18:13:27;6.20;97.30
1075;DHT22;526;51.392;12.448;2023-03-12T18:15:55;6.20;97.30